sensor_id;sensor_type;location;lat;lon;timestamp;pressure;altitude;pressure_sealevel;temperature;humidity
46464;BME280;32161;48.148;-1.554;2023-04-21T00:00:14;100612.41;;;8.60;80.24
46464;BME280;32161;48.148;-1.554;2023-04-21T00:02:42;100610.34;;;8.62;80.29
46464;BME280;32161;48.148;-1.554;2023-04-21T00:05:11;100610.09;;;8.63;79.74
46464;BME280;32161;48.148;-1.554;2023-04-21T00:07:39;100612.81;;;8.63;80.17
46464;BME280;32161;48.148;-1.554;2023-04-21T00:10:09;100604.72;;;8.56;79.90
46464;BME280;32161;48.148;-1.554;2023-04-21T00:12:37;100604.72;;;8.56;80.69
46464;BME280;32161;48.148;-1.554;2023-04-21T00:15:06;100604.28;;;8.60;80.53
46464;BME280;32161;48.148;-1.554;2023-04-21T00:17:34;100603.69;;;8.58;79.87
46464;BME280;32161;48.148;-1.554;2023-04-21T00:20:02;100601.44;;;8.54;79.91
46464;BME280;32161;48.148;-1.554;2023-04-21T00:22:32;100597.63;;;8.62;79.64
46464;BME280;32161;48.148;-1.554;2023-04-21T00:24:59;100578.84;;;8.61;79.95
46464;BME280;32161;48.148;-1.554;2023-04-21T00:27:28;100583.25;;;8.62;78.79
46464;BME280;32161;48.148;-1.554;2023-04-21T00:29:56;100576.59;;;8.58;79.12
46464;BME280;32161;48.148;-1.554;2023-04-21T00:32:23;100584.72;;;8.58;78.14
46464;BME280;32161;48.148;-1.554;2023-04-21T00:34:51;100582.03;;;8.58;78.60
46464;BME280;32161;48.148;-1.554;2023-04-21T00:37:19;100575.97;;;8.55;78.81
46464;BME280;32161;48.148;-1.554;2023-04-21T00:39:46;100569.59;;;8.50;79.81
46464;BME280;32161;48.148;-1.554;2023-04-21T00:42:15;100563.97;;;8.45;79.73
46464;BME280;32161;48.148;-1.554;2023-04-21T00:44:44;100558.16;;;8.41;80.01
46464;BME280;32161;48.148;-1.554;2023-04-21T00:47:12;100564.88;;;8.39;80.46
46464;BME280;32161;48.148;-1.554;2023-04-21T00:49:40;100551.72;;;8.42;80.00
46464;BME280;32161;48.148;-1.554;2023-04-21T00:52:08;100549.44;;;8.39;80.37
46464;BME280;32161;48.148;-1.554;2023-04-21T00:54:38;100551.53;;;8.37;79.78
46464;BME280;32161;48.148;-1.554;2023-04-21T00:57:06;100547.00;;;8.31;80.60
46464;BME280;32161;48.148;-1.554;2023-04-21T00:59:34;100544.09;;;8.26;80.58
46464;BME280;32161;48.148;-1.554;2023-04-21T01:02:03;100536.97;;;8.31;81.09
46464;BME280;32161;48.148;-1.554;2023-04-21T01:04:31;100538.09;;;8.24;81.31
46464;BME280;32161;48.148;-1.554;2023-04-21T01:07:04;100539.13;;;8.23;81.30
46464;BME280;32161;48.148;-1.554;2023-04-21T01:09:33;100528.75;;;8.20;81.27
46464;BME280;32161;48.148;-1.554;2023-04-21T01:12:01;100514.59;;;8.18;81.19
46464;BME280;32161;48.148;-1.554;2023-04-21T01:14:29;100520.63;;;8.20;81.37
46464;BME280;32161;48.148;-1.554;2023-04-21T01:16:57;100515.88;;;8.15;82.27
46464;BME280;32161;48.148;-1.554;2023-04-21T01:19:30;100515.81;;;8.22;81.70
46464;BME280;32161;48.148;-1.554;2023-04-21T01:22:00;100520.44;;;8.15;81.81
46464;BME280;32161;48.148;-1.554;2023-04-21T01:24:36;100519.41;;;8.16;81.51
46464;BME280;32161;48.148;-1.554;2023-04-21T01:27:08;100506.91;;;8.15;81.45
46464;BME280;32161;48.148;-1.554;2023-04-21T01:29:37;100504.03;;;8.10;81.47
46464;BME280;32161;48.148;-1.554;2023-04-21T01:32:08;100516.34;;;8.05;82.38
46464;BME280;32161;48.148;-1.554;2023-04-21T01:34:36;100512.00;;;8.04;81.86
46464;BME280;32161;48.148;-1.554;2023-04-21T01:37:06;100510.94;;;8.05;81.95
46464;BME280;32161;48.148;-1.554;2023-04-21T01:39:37;100514.69;;;8.04;81.96
46464;BME280;32161;48.148;-1.554;2023-04-21T01:42:05;100507.16;;;8.06;81.44
46464;BME280;32161;48.148;-1.554;2023-04-21T01:44:34;100504.94;;;8.03;81.68
46464;BME280;32161;48.148;-1.554;2023-04-21T01:47:02;100517.41;;;8.04;81.60
46464;BME280;32161;48.148;-1.554;2023-04-21T01:49:30;100515.13;;;8.01;80.85
46464;BME280;32161;48.148;-1.554;2023-04-21T01:51:58;100513.47;;;8.00;80.83
46464;BME280;32161;48.148;-1.554;2023-04-21T01:54:27;100512.41;;;8.01;81.16
46464;BME280;32161;48.148;-1.554;2023-04-21T01:56:54;100516.63;;;7.97;81.65
46464;BME280;32161;48.148;-1.554;2023-04-21T01:59:23;100517.28;;;7.93;81.86
46464;BME280;32161;48.148;-1.554;2023-04-21T02:01:51;100513.34;;;7.89;82.37
46464;BME280;32161;48.148;-1.554;2023-04-21T02:04:19;100512.06;;;7.91;82.27
46464;BME280;32161;48.148;-1.554;2023-04-21T02:06:46;100511.88;;;7.93;82.16
46464;BME280;32161;48.148;-1.554;2023-04-21T02:09:14;100509.31;;;7.98;82.79
46464;BME280;32161;48.148;-1.554;2023-04-21T02:11:43;100508.50;;;7.97;81.88
46464;BME280;32161;48.148;-1.554;2023-04-21T02:14:11;100518.00;;;8.06;81.95
46464;BME280;32161;48.148;-1.554;2023-04-21T02:16:38;100515.75;;;8.03;81.71
46464;BME280;32161;48.148;-1.554;2023-04-21T02:19:06;100505.94;;;8.02;80.54
46464;BME280;32161;48.148;-1.554;2023-04-21T02:21:33;100496.03;;;7.96;81.25
46464;BME280;32161;48.148;-1.554;2023-04-21T02:24:01;100509.56;;;7.96;81.69
46464;BME280;32161;48.148;-1.554;2023-04-21T02:26:29;100492.25;;;7.97;80.63
46464;BME280;32161;48.148;-1.554;2023-04-21T02:28:58;100491.03;;;7.93;80.04
46464;BME280;32161;48.148;-1.554;2023-04-21T02:31:25;100492.97;;;7.86;79.62
46464;BME280;32161;48.148;-1.554;2023-04-21T02:33:53;100485.69;;;7.80;79.52
46464;BME280;32161;48.148;-1.554;2023-04-21T02:36:21;100478.03;;;7.77;78.22
46464;BME280;32161;48.148;-1.554;2023-04-21T02:38:48;100479.53;;;7.73;78.36
46464;BME280;32161;48.148;-1.554;2023-04-21T02:41:16;100476.47;;;7.63;78.28
46464;BME280;32161;48.148;-1.554;2023-04-21T02:43:43;100476.88;;;7.59;78.98
46464;BME280;32161;48.148;-1.554;2023-04-21T02:46:12;100482.94;;;7.62;78.74
46464;BME280;32161;48.148;-1.554;2023-04-21T02:48:40;100473.38;;;7.59;78.87
46464;BME280;32161;48.148;-1.554;2023-04-21T02:51:11;100470.50;;;7.54;79.08
46464;BME280;32161;48.148;-1.554;2023-04-21T02:53:39;100473.19;;;7.54;77.98
46464;BME280;32161;48.148;-1.554;2023-04-21T02:56:07;100478.22;;;7.50;77.98
46464;BME280;32161;48.148;-1.554;2023-04-21T02:58:35;100473.06;;;7.42;78.11
46464;BME280;32161;48.148;-1.554;2023-04-21T03:01:04;100474.72;;;7.37;78.26
46464;BME280;32161;48.148;-1.554;2023-04-21T03:03:33;100470.56;;;7.34;78.59
46464;BME280;32161;48.148;-1.554;2023-04-21T03:06:03;100476.44;;;7.31;78.51
46464;BME280;32161;48.148;-1.554;2023-04-21T03:08:31;100464.78;;;7.30;78.08
46464;BME280;32161;48.148;-1.554;2023-04-21T03:11:00;100471.44;;;7.28;78.69
46464;BME280;32161;48.148;-1.554;2023-04-21T03:13:28;100473.53;;;7.26;78.61
46464;BME280;32161;48.148;-1.554;2023-04-21T03:15:55;100462.13;;;7.24;78.27
46464;BME280;32161;48.148;-1.554;2023-04-21T03:18:23;100456.91;;;7.22;78.53
46464;BME280;32161;48.148;-1.554;2023-04-21T03:20:58;100463.38;;;7.21;78.03
46464;BME280;32161;48.148;-1.554;2023-04-21T03:23:26;100465.06;;;7.16;77.94
46464;BME280;32161;48.148;-1.554;2023-04-21T03:25:54;100465.72;;;7.11;78.95
46464;BME280;32161;48.148;-1.554;2023-04-21T03:28:21;100468.00;;;7.07;78.63
46464;BME280;32161;48.148;-1.554;2023-04-21T03:30:49;100462.78;;;7.13;78.92
46464;BME280;32161;48.148;-1.554;2023-04-21T03:33:16;100457.16;;;7.14;79.36
46464;BME280;32161;48.148;-1.554;2023-04-21T03:35:44;100463.38;;;7.15;79.36
46464;BME280;32161;48.148;-1.554;2023-04-21T03:38:13;100456.97;;;7.16;78.87
46464;BME280;32161;48.148;-1.554;2023-04-21T03:40:40;100449.94;;;7.08;78.51
46464;BME280;32161;48.148;-1.554;2023-04-21T03:43:08;100445.38;;;7.02;78.33
46464;BME280;32161;48.148;-1.554;2023-04-21T03:45:36;100451.19;;;6.99;78.07
46464;BME280;32161;48.148;-1.554;2023-04-21T03:48:04;100437.91;;;6.91;78.04
46464;BME280;32161;48.148;-1.554;2023-04-21T03:50:32;100442.91;;;6.87;77.90
46464;BME280;32161;48.148;-1.554;2023-04-21T03:52:59;100440.47;;;6.79;77.61
46464;BME280;32161;48.148;-1.554;2023-04-21T03:55:28;100431.13;;;6.75;77.79
46464;BME280;32161;48.148;-1.554;2023-04-21T03:57:56;100433.44;;;6.65;78.04
46464;BME280;32161;48.148;-1.554;2023-04-21T04:00:24;100433.88;;;6.62;78.26
46464;BME280;32161;48.148;-1.554;2023-04-21T04:02:51;100429.53;;;6.54;78.23
46464;BME280;32161;48.148;-1.554;2023-04-21T04:05:19;100431.41;;;6.53;79.36
46464;BME280;32161;48.148;-1.554;2023-04-21T04:07:46;100437.81;;;6.52;78.76
46464;BME280;32161;48.148;-1.554;2023-04-21T04:10:14;100434.72;;;6.55;79.82
46464;BME280;32161;48.148;-1.554;2023-04-21T04:12:43;100431.00;;;6.50;79.45
46464;BME280;32161;48.148;-1.554;2023-04-21T04:15:11;100435.53;;;6.49;79.75
46464;BME280;32161;48.148;-1.554;2023-04-21T04:17:38;100425.78;;;6.48;79.66
46464;BME280;32161;48.148;-1.554;2023-04-21T04:20:07;100428.91;;;6.45;79.99
46464;BME280;32161;48.148;-1.554;2023-04-21T04:22:35;100425.38;;;6.45;79.87
46464;BME280;32161;48.148;-1.554;2023-04-21T04:25:02;100433.91;;;6.42;79.56
46464;BME280;32161;48.148;-1.554;2023-04-21T04:27:30;100425.38;;;6.45;79.54
46464;BME280;32161;48.148;-1.554;2023-04-21T04:29:59;100434.75;;;6.42;79.52
46464;BME280;32161;48.148;-1.554;2023-04-21T04:32:28;100432.88;;;6.43;79.66
46464;BME280;32161;48.148;-1.554;2023-04-21T04:34:56;100436.41;;;6.43;80.26
46464;BME280;32161;48.148;-1.554;2023-04-21T04:37:24;100430.59;;;6.46;80.10
46464;BME280;32161;48.148;-1.554;2023-04-21T04:39:52;100429.13;;;6.50;79.31
46464;BME280;32161;48.148;-1.554;2023-04-21T04:42:20;100428.91;;;6.45;80.67
46464;BME280;32161;48.148;-1.554;2023-04-21T04:44:47;100421.03;;;6.37;80.95
46464;BME280;32161;48.148;-1.554;2023-04-21T04:47:17;100432.47;;;6.32;80.89
46464;BME280;32161;48.148;-1.554;2023-04-21T04:49:44;100431.66;;;6.32;79.51
46464;BME280;32161;48.148;-1.554;2023-04-21T04:52:12;100424.59;;;6.31;78.99
46464;BME280;32161;48.148;-1.554;2023-04-21T04:54:39;100425.00;;;6.21;79.36
46464;BME280;32161;48.148;-1.554;2023-04-21T04:57:07;100426.06;;;6.20;78.96
46464;BME280;32161;48.148;-1.554;2023-04-21T04:59:34;100426.66;;;6.22;79.00
46464;BME280;32161;48.148;-1.554;2023-04-21T05:02:02;100424.59;;;6.18;79.44
46464;BME280;32161;48.148;-1.554;2023-04-21T05:04:33;100424.00;;;6.16;79.14
46464;BME280;32161;48.148;-1.554;2023-04-21T05:07:01;100424.00;;;6.16;78.83
46464;BME280;32161;48.148;-1.554;2023-04-21T05:09:28;100424.81;;;6.09;79.26
46464;BME280;32161;48.148;-1.554;2023-04-21T05:11:56;100429.16;;;6.10;79.02
46464;BME280;32161;48.148;-1.554;2023-04-21T05:14:23;100424.00;;;6.09;79.20
46464;BME280;32161;48.148;-1.554;2023-04-21T05:16:51;100425.63;;;6.10;78.88
46464;BME280;32161;48.148;-1.554;2023-04-21T05:19:18;100431.88;;;6.10;78.41
46464;BME280;32161;48.148;-1.554;2023-04-21T05:21:47;100431.88;;;6.10;78.78
46464;BME280;32161;48.148;-1.554;2023-04-21T05:24:15;100434.78;;;6.09;78.94
46464;BME280;32161;48.148;-1.554;2023-04-21T05:26:48;100438.94;;;6.05;79.27
46464;BME280;32161;48.148;-1.554;2023-04-21T05:29:15;100437.91;;;6.06;80.05
46464;BME280;32161;48.148;-1.554;2023-04-21T05:31:43;100444.34;;;6.05;80.22
46464;BME280;32161;48.148;-1.554;2023-04-21T05:34:11;100442.25;;;6.07;80.62
46464;BME280;32161;48.148;-1.554;2023-04-21T05:36:40;100438.72;;;6.06;80.23
46464;BME280;32161;48.148;-1.554;2023-04-21T05:39:10;100445.81;;;6.07;80.39
46464;BME280;32161;48.148;-1.554;2023-04-21T05:41:37;100438.94;;;6.05;80.37
46464;BME280;32161;48.148;-1.554;2023-04-21T05:44:05;100442.03;;;6.02;80.28
46464;BME280;32161;48.148;-1.554;2023-04-21T05:46:33;100437.28;;;6.04;80.39
46464;BME280;32161;48.148;-1.554;2023-04-21T05:49:00;100435.59;;;6.03;80.57
46464;BME280;32161;48.148;-1.554;2023-04-21T05:51:28;100446.63;;;6.08;81.17
46464;BME280;32161;48.148;-1.554;2023-04-21T05:53:57;100435.63;;;6.09;81.41
46464;BME280;32161;48.148;-1.554;2023-04-21T05:56:26;100433.53;;;6.11;80.89
46464;BME280;32161;48.148;-1.554;2023-04-21T05:58:54;100433.97;;;6.15;81.36
46464;BME280;32161;48.148;-1.554;2023-04-21T06:01:21;100431.47;;;6.14;82.20
46464;BME280;32161;48.148;-1.554;2023-04-21T06:03:49;100439.38;;;6.15;83.66
46464;BME280;32161;48.148;-1.554;2023-04-21T06:06:16;100434.34;;;6.19;85.16
46464;BME280;32161;48.148;-1.554;2023-04-21T06:08:44;100433.72;;;6.30;85.27
46464;BME280;32161;48.148;-1.554;2023-04-21T06:11:12;100432.69;;;6.24;86.02
46464;BME280;32161;48.148;-1.554;2023-04-21T06:13:40;100433.53;;;6.25;86.53
46464;BME280;32161;48.148;-1.554;2023-04-21T06:16:08;100428.94;;;6.39;86.49
46464;BME280;32161;48.148;-1.554;2023-04-21T06:18:36;100437.22;;;6.44;87.86
46464;BME280;32161;48.148;-1.554;2023-04-21T06:21:04;100423.97;;;6.42;88.05
46464;BME280;32161;48.148;-1.554;2023-04-21T06:23:32;100433.91;;;6.48;88.87
46464;BME280;32161;48.148;-1.554;2023-04-21T06:26:00;100425.16;;;6.59;88.77
46464;BME280;32161;48.148;-1.554;2023-04-21T06:28:30;100421.63;;;6.59;88.92
46464;BME280;32161;48.148;-1.554;2023-04-21T06:31:00;100427.78;;;6.79;88.79
46464;BME280;32161;48.148;-1.554;2023-04-21T06:33:28;100421.34;;;6.80;88.48
46464;BME280;32161;48.148;-1.554;2023-04-21T06:35:56;100418.25;;;6.77;89.05
46464;BME280;32161;48.148;-1.554;2023-04-21T06:38:24;100418.44;;;6.82;89.82
46464;BME280;32161;48.148;-1.554;2023-04-21T06:40:51;100418.41;;;6.89;89.52
46464;BME280;32161;48.148;-1.554;2023-04-21T06:43:19;100412.75;;;6.97;88.85
46464;BME280;32161;48.148;-1.554;2023-04-21T06:45:47;100414.56;;;7.09;88.07
46464;BME280;32161;48.148;-1.554;2023-04-21T06:48:16;100418.50;;;7.14;87.92
46464;BME280;32161;48.148;-1.554;2023-04-21T06:50:43;100410.78;;;7.17;88.23
46464;BME280;32161;48.148;-1.554;2023-04-21T06:53:11;100407.81;;;7.25;87.63
46464;BME280;32161;48.148;-1.554;2023-04-21T06:55:39;100405.44;;;7.42;87.87
46464;BME280;32161;48.148;-1.554;2023-04-21T06:58:06;100407.25;;;7.48;87.46
46464;BME280;32161;48.148;-1.554;2023-04-21T07:00:34;100400.44;;;7.46;87.61
46464;BME280;32161;48.148;-1.554;2023-04-21T07:03:01;100405.34;;;7.55;87.82
46464;BME280;32161;48.148;-1.554;2023-04-21T07:05:30;100402.66;;;7.55;87.62
46464;BME280;32161;48.148;-1.554;2023-04-21T07:07:58;100400.97;;;7.61;87.50
46464;BME280;32161;48.148;-1.554;2023-04-21T07:10:26;100402.09;;;7.72;87.65
46464;BME280;32161;48.148;-1.554;2023-04-21T07:12:54;100403.91;;;7.85;87.63
46464;BME280;32161;48.148;-1.554;2023-04-21T07:15:22;100404.72;;;7.85;86.41
46464;BME280;32161;48.148;-1.554;2023-04-21T07:17:49;100399.84;;;7.94;85.75
46464;BME280;32161;48.148;-1.554;2023-04-21T07:20:17;100399.84;;;7.94;85.17
46464;BME280;32161;48.148;-1.554;2023-04-21T07:22:46;100397.88;;;8.07;85.57
46464;BME280;32161;48.148;-1.554;2023-04-21T07:25:13;100400.56;;;8.07;86.15
46464;BME280;32161;48.148;-1.554;2023-04-21T07:27:41;100395.53;;;8.11;86.60
46464;BME280;32161;48.148;-1.554;2023-04-21T07:30:09;100398.34;;;8.23;86.85
46464;BME280;32161;48.148;-1.554;2023-04-21T07:32:37;100390.75;;;8.31;85.45
46464;BME280;32161;48.148;-1.554;2023-04-21T07:35:06;100383.56;;;8.44;83.56
46464;BME280;32161;48.148;-1.554;2023-04-21T07:37:33;100384.84;;;8.41;83.86
46464;BME280;32161;48.148;-1.554;2023-04-21T07:40:03;100383.19;;;8.40;82.85
46464;BME280;32161;48.148;-1.554;2023-04-21T07:42:30;100384.09;;;8.52;83.27
46464;BME280;32161;48.148;-1.554;2023-04-21T07:44:58;100380.19;;;8.67;82.61
46464;BME280;32161;48.148;-1.554;2023-04-21T07:47:27;100370.78;;;8.69;82.04
46464;BME280;32161;48.148;-1.554;2023-04-21T07:49:55;100383.50;;;8.69;81.79
46464;BME280;32161;48.148;-1.554;2023-04-21T07:52:23;100374.25;;;8.76;81.79
46464;BME280;32161;48.148;-1.554;2023-04-21T07:54:50;100381.38;;;8.89;82.41
46464;BME280;32161;48.148;-1.554;2023-04-21T07:57:20;100387.38;;;8.91;81.71
46464;BME280;32161;48.148;-1.554;2023-04-21T07:59:47;100380.44;;;8.95;81.93
46464;BME280;32161;48.148;-1.554;2023-04-21T08:02:16;100379.53;;;9.01;81.94
46464;BME280;32161;48.148;-1.554;2023-04-21T08:04:44;100383.31;;;9.31;79.81
46464;BME280;32161;48.148;-1.554;2023-04-21T08:07:11;100386.63;;;9.33;81.42
46464;BME280;32161;48.148;-1.554;2023-04-21T08:09:40;100384.00;;;9.26;80.78
46464;BME280;32161;48.148;-1.554;2023-04-21T08:12:08;100383.56;;;9.41;81.13
46464;BME280;32161;48.148;-1.554;2023-04-21T08:14:37;100381.13;;;9.51;80.06
46464;BME280;32161;48.148;-1.554;2023-04-21T08:17:04;100384.72;;;9.75;78.29
46464;BME280;32161;48.148;-1.554;2023-04-21T08:19:32;100389.22;;;9.81;78.53
46464;BME280;32161;48.148;-1.554;2023-04-21T08:21:59;100386.75;;;10.03;74.86
46464;BME280;32161;48.148;-1.554;2023-04-21T08:24:27;100383.34;;;10.08;75.84
46464;BME280;32161;48.148;-1.554;2023-04-21T08:26:55;100381.09;;;10.16;73.13
46464;BME280;32161;48.148;-1.554;2023-04-21T08:29:23;100373.19;;;10.15;74.38
46464;BME280;32161;48.148;-1.554;2023-04-21T08:31:52;100378.88;;;10.25;74.27
46464;BME280;32161;48.148;-1.554;2023-04-21T08:34:19;100378.03;;;10.36;74.57
46464;BME280;32161;48.148;-1.554;2023-04-21T08:36:47;100375.19;;;10.55;73.36
46464;BME280;32161;48.148;-1.554;2023-04-21T08:39:14;100380.00;;;10.52;72.54
46464;BME280;32161;48.148;-1.554;2023-04-21T08:41:42;100368.78;;;10.72;70.66
46464;BME280;32161;48.148;-1.554;2023-04-21T08:44:10;100374.44;;;10.71;71.37
46464;BME280;32161;48.148;-1.554;2023-04-21T08:46:38;100365.09;;;10.67;70.43
46464;BME280;32161;48.148;-1.554;2023-04-21T08:49:09;100372.06;;;10.74;68.13
46464;BME280;32161;48.148;-1.554;2023-04-21T08:51:36;100364.50;;;10.77;68.19
46464;BME280;32161;48.148;-1.554;2023-04-21T08:54:05;100360.22;;;10.81;68.65
46464;BME280;32161;48.148;-1.554;2023-04-21T08:56:32;100353.44;;;10.95;66.12
46464;BME280;32161;48.148;-1.554;2023-04-21T08:59:00;100348.44;;;11.04;65.41
46464;BME280;32161;48.148;-1.554;2023-04-21T09:01:27;100346.00;;;11.19;67.61
46464;BME280;32161;48.148;-1.554;2023-04-21T09:04:16;100350.38;;;11.20;67.61
46464;BME280;32161;48.148;-1.554;2023-04-21T09:06:44;100350.41;;;11.37;67.19
46464;BME280;32161;48.148;-1.554;2023-04-21T09:09:12;100347.59;;;11.48;66.84
46464;BME280;32161;48.148;-1.554;2023-04-21T09:11:39;100347.97;;;11.69;67.07
46464;BME280;32161;48.148;-1.554;2023-04-21T09:14:07;100338.41;;;11.83;65.62
46464;BME280;32161;48.148;-1.554;2023-04-21T09:16:35;100338.63;;;11.98;62.82
46464;BME280;32161;48.148;-1.554;2023-04-21T09:19:02;100342.44;;;11.97;63.98
46464;BME280;32161;48.148;-1.554;2023-04-21T09:21:43;100333.63;;;12.07;66.01
46464;BME280;32161;48.148;-1.554;2023-04-21T09:24:13;100336.88;;;12.26;61.81
46464;BME280;32161;48.148;-1.554;2023-04-21T09:26:42;100341.91;;;12.17;61.94
46464;BME280;32161;48.148;-1.554;2023-04-21T09:29:09;100334.56;;;12.18;59.87
46464;BME280;32161;48.148;-1.554;2023-04-21T09:31:37;100337.38;;;12.23;60.13
46464;BME280;32161;48.148;-1.554;2023-04-21T09:34:17;100329.38;;;12.16;60.11
46464;BME280;32161;48.148;-1.554;2023-04-21T09:36:47;100323.09;;;12.16;58.48
46464;BME280;32161;48.148;-1.554;2023-04-21T09:39:15;100329.88;;;12.13;59.55
46464;BME280;32161;48.148;-1.554;2023-04-21T09:41:43;100331.00;;;12.17;61.02
46464;BME280;32161;48.148;-1.554;2023-04-21T09:44:11;100321.13;;;12.11;61.28
46464;BME280;32161;48.148;-1.554;2023-04-21T09:46:43;100332.59;;;12.13;60.50
46464;BME280;32161;48.148;-1.554;2023-04-21T09:49:16;100326.91;;;12.15;59.94
46464;BME280;32161;48.148;-1.554;2023-04-21T09:51:45;100319.81;;;12.36;57.34
46464;BME280;32161;48.148;-1.554;2023-04-21T09:54:16;100313.56;;;12.35;59.08
46464;BME280;32161;48.148;-1.554;2023-04-21T09:56:48;100311.41;;;12.59;58.78
46464;BME280;32161;48.148;-1.554;2023-04-21T09:59:25;100312.72;;;12.79;55.94
46464;BME280;32161;48.148;-1.554;2023-04-21T10:01:54;100314.56;;;12.73;57.25
46464;BME280;32161;48.148;-1.554;2023-04-21T10:04:22;100315.72;;;12.55;58.57
46464;BME280;32161;48.148;-1.554;2023-04-21T10:06:51;100316.97;;;12.48;57.21
46464;BME280;32161;48.148;-1.554;2023-04-21T10:09:23;100317.03;;;12.53;58.78
46464;BME280;32161;48.148;-1.554;2023-04-21T10:11:52;100311.41;;;12.59;59.85
46464;BME280;32161;48.148;-1.554;2023-04-21T10:14:20;100306.44;;;12.78;58.54
46464;BME280;32161;48.148;-1.554;2023-04-21T10:16:56;100300.28;;;12.88;58.07
46464;BME280;32161;48.148;-1.554;2023-04-21T10:19:26;100304.88;;;12.87;56.70
46464;BME280;32161;48.148;-1.554;2023-04-21T10:21:55;100308.72;;;12.86;58.91
46464;BME280;32161;48.148;-1.554;2023-04-21T10:24:28;100295.84;;;13.09;57.80
46464;BME280;32161;48.148;-1.554;2023-04-21T10:26:56;100294.13;;;13.03;57.15
46464;BME280;32161;48.148;-1.554;2023-04-21T10:29:32;100294.75;;;12.83;59.21
46464;BME280;32161;48.148;-1.554;2023-04-21T10:32:00;100284.44;;;12.85;59.49
46464;BME280;32161;48.148;-1.554;2023-04-21T10:34:34;100292.47;;;12.97;59.96
46464;BME280;32161;48.148;-1.554;2023-04-21T10:37:18;100290.56;;;13.24;56.72
46464;BME280;32161;48.148;-1.554;2023-04-21T10:39:55;100287.06;;;13.29;57.46
46464;BME280;32161;48.148;-1.554;2023-04-21T10:42:29;100287.63;;;13.31;59.21
46464;BME280;32161;48.148;-1.554;2023-04-21T10:45:10;100285.94;;;13.25;57.14
46464;BME280;32161;48.148;-1.554;2023-04-21T10:47:46;100281.59;;;13.29;56.95
46464;BME280;32161;48.148;-1.554;2023-04-21T10:50:22;100272.31;;;13.30;56.69
46464;BME280;32161;48.148;-1.554;2023-04-21T10:52:57;100270.78;;;13.39;55.40
46464;BME280;32161;48.148;-1.554;2023-04-21T10:55:28;100269.69;;;13.40;56.02
46464;BME280;32161;48.148;-1.554;2023-04-21T10:57:57;100274.81;;;13.31;55.95
46464;BME280;32161;48.148;-1.554;2023-04-21T11:00:27;100263.53;;;13.23;55.76
46464;BME280;32161;48.148;-1.554;2023-04-21T11:03:00;100262.63;;;13.17;57.89
46464;BME280;32161;48.148;-1.554;2023-04-21T11:05:31;100262.75;;;13.27;56.23
46464;BME280;32161;48.148;-1.554;2023-04-21T11:08:10;100262.56;;;13.34;55.12
46464;BME280;32161;48.148;-1.554;2023-04-21T11:10:48;100253.81;;;13.37;54.89
46464;BME280;32161;48.148;-1.554;2023-04-21T11:13:16;100255.78;;;13.41;55.35
46464;BME280;32161;48.148;-1.554;2023-04-21T11:15:59;100250.66;;;13.50;56.54
46464;BME280;32161;48.148;-1.554;2023-04-21T11:18:38;100250.44;;;13.57;56.12
46464;BME280;32161;48.148;-1.554;2023-04-21T11:21:12;100247.25;;;13.70;55.93
46464;BME280;32161;48.148;-1.554;2023-04-21T11:23:51;100243.19;;;13.73;54.66
46464;BME280;32161;48.148;-1.554;2023-04-21T11:26:30;100240.69;;;13.71;54.10
46464;BME280;32161;48.148;-1.554;2023-04-21T11:29:02;100238.53;;;13.73;54.82
46464;BME280;32161;48.148;-1.554;2023-04-21T11:31:31;100239.22;;;13.96;54.32
46464;BME280;32161;48.148;-1.554;2023-04-21T11:33:59;100232.13;;;14.00;54.52
46464;BME280;32161;48.148;-1.554;2023-04-21T11:36:28;100226.97;;;14.03;56.94
46464;BME280;32161;48.148;-1.554;2023-04-21T11:38:55;100224.78;;;14.10;55.83
46464;BME280;32161;48.148;-1.554;2023-04-21T11:41:25;100219.06;;;14.17;55.68
46464;BME280;32161;48.148;-1.554;2023-04-21T11:43:52;100220.28;;;14.41;55.50
46464;BME280;32161;48.148;-1.554;2023-04-21T11:46:23;100218.16;;;14.59;54.52
46464;BME280;32161;48.148;-1.554;2023-04-21T11:48:59;100218.47;;;14.73;52.88
46464;BME280;32161;48.148;-1.554;2023-04-21T11:51:33;100213.81;;;14.83;54.42
46464;BME280;32161;48.148;-1.554;2023-04-21T11:54:01;100208.38;;;15.04;54.63
46464;BME280;32161;48.148;-1.554;2023-04-21T11:56:34;100218.25;;;15.30;52.38
46464;BME280;32161;48.148;-1.554;2023-04-21T11:59:06;100219.06;;;15.21;52.39
46464;BME280;32161;48.148;-1.554;2023-04-21T12:01:41;100222.06;;;15.09;52.65
46464;BME280;32161;48.148;-1.554;2023-04-21T12:04:13;100213.56;;;15.21;52.41
46464;BME280;32161;48.148;-1.554;2023-04-21T12:06:42;100212.47;;;15.06;52.40
46464;BME280;32161;48.148;-1.554;2023-04-21T12:09:16;100211.94;;;15.09;50.52
46464;BME280;32161;48.148;-1.554;2023-04-21T12:11:49;100213.03;;;15.13;52.05
46464;BME280;32161;48.148;-1.554;2023-04-21T12:14:18;100211.66;;;15.06;53.21
46464;BME280;32161;48.148;-1.554;2023-04-21T12:16:48;100197.97;;;15.16;52.81
46464;BME280;32161;48.148;-1.554;2023-04-21T12:19:22;100202.91;;;15.24;55.29
46464;BME280;32161;48.148;-1.554;2023-04-21T12:21:54;100199.63;;;15.27;55.25
46464;BME280;32161;48.148;-1.554;2023-04-21T12:24:23;100200.16;;;15.29;54.91
46464;BME280;32161;48.148;-1.554;2023-04-21T12:26:52;100203.44;;;15.36;55.27
46464;BME280;32161;48.148;-1.554;2023-04-21T12:29:20;100198.78;;;15.47;51.70
46464;BME280;32161;48.148;-1.554;2023-04-21T12:31:47;100196.31;;;15.46;52.91
46464;BME280;32161;48.148;-1.554;2023-04-21T12:34:15;100201.78;;;15.51;54.13
46464;BME280;32161;48.148;-1.554;2023-04-21T12:36:43;100198.47;;;15.74;53.41
46464;BME280;32161;48.148;-1.554;2023-04-21T12:39:10;100201.75;;;15.81;49.39
46464;BME280;32161;48.148;-1.554;2023-04-21T12:41:38;100197.94;;;15.67;50.04
46464;BME280;32161;48.148;-1.554;2023-04-21T12:44:07;100192.44;;;15.62;50.33
46464;BME280;32161;48.148;-1.554;2023-04-21T12:46:35;100191.91;;;15.70;50.30
46464;BME280;32161;48.148;-1.554;2023-04-21T12:49:02;100189.19;;;15.70;52.44
46464;BME280;32161;48.148;-1.554;2023-04-21T12:51:32;100182.34;;;15.73;51.34
46464;BME280;32161;48.148;-1.554;2023-04-21T12:54:00;100191.06;;;15.75;51.44